sensor_id;sensor_type;location;lat;lon;timestamp;pressure;altitude;pressure_sealevel;temperature;humidity
35716;BME280;21840;44.920;8.616;2023-02-12T00:02:13;102129.34;;;5.12;39.80
35716;BME280;21840;44.920;8.616;2023-02-12T00:04:38;102128.22;;;4.94;40.43
35716;BME280;21840;44.920;8.616;2023-02-12T00:07:03;102128.31;;;4.67;40.85
35716;BME280;21840;44.920;8.616;2023-02-12T00:09:29;102127.69;;;5.09;40.22
35716;BME280;21840;44.920;8.616;2023-02-12T00:11:54;102126.13;;;4.80;40.48
35716;BME280;21840;44.920;8.616;2023-02-12T00:14:20;102112.41;;;5.00;40.49
35716;BME280;21840;44.920;8.616;2023-02-12T00:16:45;102121.00;;;5.02;40.18
35716;BME280;21840;44.920;8.616;2023-02-12T00:19:11;102123.50;;;5.05;40.26
35716;BME280;21840;44.920;8.616;2023-02-12T00:21:36;102123.13;;;4.91;40.52
35716;BME280;21840;44.920;8.616;2023-02-12T00:24:02;102121.81;;;4.79;40.60
35716;BME280;21840;44.920;8.616;2023-02-12T00:26:28;102128.78;;;4.79;40.62
35716;BME280;21840;44.920;8.616;2023-02-12T00:28:54;102124.78;;;4.93;40.70
35716;BME280;21840;44.920;8.616;2023-02-12T00:31:24;102118.25;;;5.07;40.72
35716;BME280;21840;44.920;8.616;2023-02-12T00:33:51;102119.94;;;5.08;40.28
35716;BME280;21840;44.920;8.616;2023-02-12T00:36:19;102121.59;;;4.85;40.57
35716;BME280;21840;44.920;8.616;2023-02-12T00:38:45;102116.44;;;4.84;40.27
35716;BME280;21840;44.920;8.616;2023-02-12T00:41:12;102119.94;;;5.08;40.04
35716;BME280;21840;44.920;8.616;2023-02-12T00:43:37;102121.94;;;4.76;41.05
35716;BME280;21840;44.920;8.616;2023-02-12T00:46:03;102118.28;;;5.05;41.21
35716;BME280;21840;44.920;8.616;2023-02-12T00:48:29;102123.78;;;4.97;41.49
35716;BME280;21840;44.920;8.616;2023-02-12T00:50:55;102123.88;;;5.18;40.63
35716;BME280;21840;44.920;8.616;2023-02-12T00:53:20;102129.19;;;4.91;40.99
35716;BME280;21840;44.920;8.616;2023-02-12T00:55:46;102120.78;;;5.08;40.12
35716;BME280;21840;44.920;8.616;2023-02-12T00:58:12;102121.69;;;5.07;40.10
35716;BME280;21840;44.920;8.616;2023-02-12T01:00:37;102113.59;;;5.15;40.29
35716;BME280;21840;44.920;8.616;2023-02-12T01:03:03;102116.53;;;5.06;40.44
35716;BME280;21840;44.920;8.616;2023-02-12T01:05:31;102114.38;;;5.17;39.99
35716;BME280;21840;44.920;8.616;2023-02-12T01:07:56;102112.44;;;4.75;40.52
35716;BME280;21840;44.920;8.616;2023-02-12T01:10:22;102117.22;;;4.62;40.57
35716;BME280;21840;44.920;8.616;2023-02-12T01:12:48;102101.59;;;4.87;40.80
35716;BME280;21840;44.920;8.616;2023-02-12T01:15:14;102106.94;;;4.83;40.82
35716;BME280;21840;44.920;8.616;2023-02-12T01:17:40;102106.16;;;4.56;41.25
35716;BME280;21840;44.920;8.616;2023-02-12T01:20:07;102100.09;;;4.80;40.98
35716;BME280;21840;44.920;8.616;2023-02-12T01:22:33;102104.78;;;4.70;41.42
35716;BME280;21840;44.920;8.616;2023-02-12T01:25:01;102098.72;;;4.70;42.21
35716;BME280;21840;44.920;8.616;2023-02-12T01:27:26;102107.34;;;4.47;43.01
35716;BME280;21840;44.920;8.616;2023-02-12T01:29:54;102107.38;;;4.20;43.03
35716;BME280;21840;44.920;8.616;2023-02-12T01:32:19;102104.25;;;4.61;42.27
35716;BME280;21840;44.920;8.616;2023-02-12T01:34:45;102109.06;;;4.46;42.15
35716;BME280;21840;44.920;8.616;2023-02-12T01:37:11;102108.88;;;5.01;41.00
35716;BME280;21840;44.920;8.616;2023-02-12T01:39:36;102105.91;;;5.12;40.90
35716;BME280;21840;44.920;8.616;2023-02-12T01:42:03;102094.50;;;5.38;40.51
35716;BME280;21840;44.920;8.616;2023-02-12T01:44:30;102094.81;;;5.29;41.00
35716;BME280;21840;44.920;8.616;2023-02-12T01:46:58;102079.75;;;5.15;40.63
35716;BME280;21840;44.920;8.616;2023-02-12T01:49:30;102089.69;;;5.04;41.28
35716;BME280;21840;44.920;8.616;2023-02-12T01:52:07;102091.69;;;4.97;42.37
35716;BME280;21840;44.920;8.616;2023-02-12T01:54:34;102088.63;;;4.61;42.59
35716;BME280;21840;44.920;8.616;2023-02-12T01:57:04;102093.16;;;5.04;41.64
35716;BME280;21840;44.920;8.616;2023-02-12T01:59:30;102089.72;;;4.55;42.41
35716;BME280;21840;44.920;8.616;2023-02-12T02:01:56;102088.34;;;4.45;42.05
35716;BME280;21840;44.920;8.616;2023-02-12T02:04:28;102082.31;;;4.91;41.52
35716;BME280;21840;44.920;8.616;2023-02-12T02:06:59;102093.09;;;4.82;41.91
35716;BME280;21840;44.920;8.616;2023-02-12T02:09:26;102091.81;;;4.69;42.01
35716;BME280;21840;44.920;8.616;2023-02-12T02:11:53;102085.50;;;4.26;42.64
35716;BME280;21840;44.920;8.616;2023-02-12T02:14:38;102072.56;;;4.49;42.36
35716;BME280;21840;44.920;8.616;2023-02-12T02:31:16;102051.53;;;4.56;41.69
35716;BME280;21840;44.920;8.616;2023-02-12T02:33:55;102040.13;;;4.09;42.36
35716;BME280;21840;44.920;8.616;2023-02-12T02:39:11;102031.13;;;4.20;42.94
35716;BME280;21840;44.920;8.616;2023-02-12T02:41:49;102039.25;;;4.59;42.07
35716;BME280;21840;44.920;8.616;2023-02-12T02:44:25;102037.59;;;4.33;42.14
35716;BME280;21840;44.920;8.616;2023-02-12T02:46:53;102042.34;;;4.45;41.76
35716;BME280;21840;44.920;8.616;2023-02-12T02:49:36;102032.34;;;4.09;42.46
35716;BME280;21840;44.920;8.616;2023-02-12T02:52:07;102026.84;;;3.92;42.94
35716;BME280;21840;44.920;8.616;2023-02-12T02:54:49;102022.06;;;3.80;42.99
35716;BME280;21840;44.920;8.616;2023-02-12T02:57:29;102022.78;;;3.83;42.88
35716;BME280;21840;44.920;8.616;2023-02-12T03:02:35;102024.53;;;3.56;44.04
35716;BME280;21840;44.920;8.616;2023-02-12T03:05:11;102015.09;;;3.26;44.57
35716;BME280;21840;44.920;8.616;2023-02-12T03:07:52;102022.84;;;3.55;43.81
35716;BME280;21840;44.920;8.616;2023-02-12T03:10:24;102026.50;;;3.76;43.39
35716;BME280;21840;44.920;8.616;2023-02-12T03:12:56;102025.97;;;3.38;44.16
35716;BME280;21840;44.920;8.616;2023-02-12T03:18:11;102011.06;;;3.97;43.08
35716;BME280;21840;44.920;8.616;2023-02-12T03:20:50;102012.97;;;3.92;43.10
35716;BME280;21840;44.920;8.616;2023-02-12T03:23:25;102007.88;;;4.15;42.49
35716;BME280;21840;44.920;8.616;2023-02-12T03:26:15;102003.56;;;4.14;42.54
35716;BME280;21840;44.920;8.616;2023-02-12T03:28:43;102011.16;;;3.95;42.75
35716;BME280;21840;44.920;8.616;2023-02-12T03:31:20;102012.25;;;3.88;42.68
35716;BME280;21840;44.920;8.616;2023-02-12T03:37:04;102006.59;;;3.49;43.55
35716;BME280;21840;44.920;8.616;2023-02-12T03:39:56;102012.44;;;3.82;43.12
35716;BME280;21840;44.920;8.616;2023-02-12T03:47:53;102005.50;;;3.82;42.87
35716;BME280;21840;44.920;8.616;2023-02-12T03:50:52;102009.06;;;3.80;42.70
35716;BME280;21840;44.920;8.616;2023-02-12T03:53:19;102004.31;;;3.66;42.92
35716;BME280;21840;44.920;8.616;2023-02-12T03:55:47;102012.50;;;3.80;42.44
35716;BME280;21840;44.920;8.616;2023-02-12T03:58:20;102013.13;;;3.34;43.83
35716;BME280;21840;44.920;8.616;2023-02-12T04:00:48;102010.19;;;3.71;43.14
35716;BME280;21840;44.920;8.616;2023-02-12T04:03:15;102021.25;;;4.04;42.73
35716;BME280;21840;44.920;8.616;2023-02-12T04:05:40;102023.91;;;4.01;42.26
35716;BME280;21840;44.920;8.616;2023-02-12T04:08:08;102022.16;;;4.02;42.66
35716;BME280;21840;44.920;8.616;2023-02-12T04:10:41;102024.63;;;4.06;42.63
35716;BME280;21840;44.920;8.616;2023-02-12T04:13:18;102020.59;;;3.98;43.02
35716;BME280;21840;44.920;8.616;2023-02-12T04:18:28;102008.38;;;3.75;44.50
35716;BME280;21840;44.920;8.616;2023-02-12T04:21:10;102012.75;;;3.73;43.93
35716;BME280;21840;44.920;8.616;2023-02-12T04:34:06;102021.09;;;3.82;43.34
35716;BME280;21840;44.920;8.616;2023-02-12T04:37:11;102023.84;;;4.04;43.08
35716;BME280;21840;44.920;8.616;2023-02-12T04:39:40;102015.19;;;3.51;43.93
35716;BME280;21840;44.920;8.616;2023-02-12T04:42:06;102016.09;;;3.50;44.04
35716;BME280;21840;44.920;8.616;2023-02-12T04:44:35;102019.44;;;3.53;44.67
35716;BME280;21840;44.920;8.616;2023-02-12T04:47:01;102020.78;;;3.92;43.51
35716;BME280;21840;44.920;8.616;2023-02-12T04:49:27;102015.66;;;3.90;43.44
35716;BME280;21840;44.920;8.616;2023-02-12T04:51:52;102016.72;;;3.30;44.77
35716;BME280;21840;44.920;8.616;2023-02-12T04:54:19;102015.53;;;3.66;43.73
35716;BME280;21840;44.920;8.616;2023-02-12T04:56:45;102014.25;;;3.53;43.99
35716;BME280;21840;44.920;8.616;2023-02-12T04:59:11;102011.16;;;3.68;43.28
35716;BME280;21840;44.920;8.616;2023-02-12T05:01:37;102009.13;;;3.77;42.86
35716;BME280;21840;44.920;8.616;2023-02-12T05:04:04;102013.66;;;3.45;43.22
35716;BME280;21840;44.920;8.616;2023-02-12T05:06:33;102004.81;;;3.51;43.57
35716;BME280;21840;44.920;8.616;2023-02-12T05:08:59;102009.78;;;3.83;43.24
35716;BME280;21840;44.920;8.616;2023-02-12T05:11:24;102017.06;;;3.99;42.81
35716;BME280;21840;44.920;8.616;2023-02-12T05:13:50;102013.56;;;3.75;43.63
35716;BME280;21840;44.920;8.616;2023-02-12T05:16:17;102019.47;;;3.25;44.67
35716;BME280;21840;44.920;8.616;2023-02-12T05:18:43;102012.22;;;3.63;44.23
35716;BME280;21840;44.920;8.616;2023-02-12T05:21:08;102010.84;;;3.78;43.76
35716;BME280;21840;44.920;8.616;2023-02-12T05:23:36;102025.25;;;3.88;43.61
35716;BME280;21840;44.920;8.616;2023-02-12T05:26:05;102021.53;;;3.95;43.31
35716;BME280;21840;44.920;8.616;2023-02-12T05:28:31;102025.63;;;3.49;44.02
35716;BME280;21840;44.920;8.616;2023-02-12T05:31:01;102031.75;;;3.75;43.93
35716;BME280;21840;44.920;8.616;2023-02-12T05:33:27;102031.72;;;3.48;44.62
35716;BME280;21840;44.920;8.616;2023-02-12T05:35:53;102027.59;;;3.42;44.99
35716;BME280;21840;44.920;8.616;2023-02-12T05:38:19;102034.56;;;3.40;44.16
35716;BME280;21840;44.920;8.616;2023-02-12T05:40:45;102028.50;;;3.68;43.60
35716;BME280;21840;44.920;8.616;2023-02-12T05:43:10;102022.59;;;3.89;42.53
35716;BME280;21840;44.920;8.616;2023-02-12T05:45:36;102008.88;;;3.31;43.87
35716;BME280;21840;44.920;8.616;2023-02-12T05:48:02;102012.34;;;3.58;43.86
35716;BME280;21840;44.920;8.616;2023-02-12T05:50:28;102017.41;;;3.63;43.96
35716;BME280;21840;44.920;8.616;2023-02-12T05:52:59;102014.28;;;3.25;44.75
35716;BME280;21840;44.920;8.616;2023-02-12T05:55:25;102010.38;;;3.10;45.25
35716;BME280;21840;44.920;8.616;2023-02-12T05:57:50;102023.88;;;2.92;45.39
35716;BME280;21840;44.920;8.616;2023-02-12T06:00:16;102019.25;;;3.31;44.91
35716;BME280;21840;44.920;8.616;2023-02-12T06:02:41;102007.47;;;3.21;44.67
35716;BME280;21840;44.920;8.616;2023-02-12T06:05:07;102014.66;;;3.39;44.42
35716;BME280;21840;44.920;8.616;2023-02-12T06:07:32;102011.66;;;3.53;44.50
35716;BME280;21840;44.920;8.616;2023-02-12T06:09:58;102008.44;;;3.45;44.19
35716;BME280;21840;44.920;8.616;2023-02-12T06:12:23;102005.81;;;2.89;45.41
35716;BME280;21840;44.920;8.616;2023-02-12T06:14:49;102018.44;;;3.01;45.16
35716;BME280;21840;44.920;8.616;2023-02-12T06:17:14;102019.03;;;3.11;45.35
35716;BME280;21840;44.920;8.616;2023-02-12T06:19:40;102012.69;;;3.19;44.98
35716;BME280;21840;44.920;8.616;2023-02-12T06:22:05;102000.00;;;3.10;45.11
35716;BME280;21840;44.920;8.616;2023-02-12T06:24:31;102009.03;;;2.97;45.42
35716;BME280;21840;44.920;8.616;2023-02-12T06:26:56;102006.47;;;2.67;46.02
35716;BME280;21840;44.920;8.616;2023-02-12T06:29:22;102015.63;;;3.09;45.32
35716;BME280;21840;44.920;8.616;2023-02-12T06:31:48;102013.50;;;3.21;44.90
35716;BME280;21840;44.920;8.616;2023-02-12T06:34:14;102006.25;;;3.05;45.40
35716;BME280;21840;44.920;8.616;2023-02-12T06:36:43;102021.47;;;2.87;45.80
35716;BME280;21840;44.920;8.616;2023-02-12T06:39:10;102029.53;;;3.34;44.69
35716;BME280;21840;44.920;8.616;2023-02-12T06:41:36;102035.66;;;3.03;45.16
35716;BME280;21840;44.920;8.616;2023-02-12T06:44:03;102031.38;;;3.32;44.81
35716;BME280;21840;44.920;8.616;2023-02-12T06:46:28;102038.16;;;2.77;45.32
35716;BME280;21840;44.920;8.616;2023-02-12T06:48:55;102038.34;;;3.30;45.01
35716;BME280;21840;44.920;8.616;2023-02-12T06:51:22;102039.16;;;3.02;45.21
35716;BME280;21840;44.920;8.616;2023-02-12T06:53:48;102040.53;;;3.14;44.89
35716;BME280;21840;44.920;8.616;2023-02-12T06:56:15;102041.75;;;3.02;45.35
35716;BME280;21840;44.920;8.616;2023-02-12T06:58:43;102048.78;;;2.99;45.55
35716;BME280;21840;44.920;8.616;2023-02-12T07:01:10;102055.38;;;3.09;45.29
35716;BME280;21840;44.920;8.616;2023-02-12T07:03:41;102059.03;;;3.32;44.72
35716;BME280;21840;44.920;8.616;2023-02-12T07:06:06;102054.72;;;3.32;44.65
35716;BME280;21840;44.920;8.616;2023-02-12T07:08:32;102051.00;;;3.11;45.15
35716;BME280;21840;44.920;8.616;2023-02-12T07:10:57;102060.53;;;3.40;44.53
35716;BME280;21840;44.920;8.616;2023-02-12T07:13:23;102062.31;;;3.38;44.40
35716;BME280;21840;44.920;8.616;2023-02-12T07:15:48;102056.53;;;3.57;43.69
35716;BME280;21840;44.920;8.616;2023-02-12T07:18:14;102074.72;;;2.99;44.61
35716;BME280;21840;44.920;8.616;2023-02-12T07:20:39;102075.31;;;3.38;43.95
35716;BME280;21840;44.920;8.616;2023-02-12T07:23:05;102078.00;;;3.63;42.73
35716;BME280;21840;44.920;8.616;2023-02-12T07:25:30;102084.31;;;3.83;42.81
35716;BME280;21840;44.920;8.616;2023-02-12T07:27:56;102082.34;;;4.16;42.12
35716;BME280;21840;44.920;8.616;2023-02-12T07:30:21;102082.81;;;3.76;42.24
35716;BME280;21840;44.920;8.616;2023-02-12T07:32:47;102080.91;;;3.81;42.36
35716;BME280;21840;44.920;8.616;2023-02-12T07:35:12;102076.66;;;3.78;42.19
35716;BME280;21840;44.920;8.616;2023-02-12T07:37:38;102078.50;;;4.28;41.37
35716;BME280;21840;44.920;8.616;2023-02-12T07:40:04;102087.38;;;4.22;42.16
35716;BME280;21840;44.920;8.616;2023-02-12T07:42:29;102100.91;;;4.05;42.20
35716;BME280;21840;44.920;8.616;2023-02-12T07:44:55;102100.84;;;4.59;41.55
35716;BME280;21840;44.920;8.616;2023-02-12T07:47:20;102095.41;;;4.15;42.12
35716;BME280;21840;44.920;8.616;2023-02-12T07:49:46;102092.03;;;4.63;41.94
35716;BME280;21840;44.920;8.616;2023-02-12T07:52:11;102091.78;;;4.70;41.40
35716;BME280;21840;44.920;8.616;2023-02-12T07:54:36;102100.72;;;4.62;42.00
35716;BME280;21840;44.920;8.616;2023-02-12T07:57:02;102096.97;;;4.94;41.27
35716;BME280;21840;44.920;8.616;2023-02-12T07:59:27;102098.00;;;5.37;40.65
35716;BME280;21840;44.920;8.616;2023-02-12T08:01:53;102093.38;;;5.67;39.96
35716;BME280;21840;44.920;8.616;2023-02-12T08:04:23;102103.03;;;5.63;39.47
35716;BME280;21840;44.920;8.616;2023-02-12T08:06:50;102100.53;;;5.38;39.57
35716;BME280;21840;44.920;8.616;2023-02-12T08:09:22;102102.47;;;5.33;39.63
35716;BME280;21840;44.920;8.616;2023-02-12T08:11:48;102106.78;;;5.11;40.91
35716;BME280;21840;44.920;8.616;2023-02-12T08:14:16;102101.66;;;5.55;40.75
35716;BME280;21840;44.920;8.616;2023-02-12T08:16:43;102112.38;;;5.47;40.52
35716;BME280;21840;44.920;8.616;2023-02-12T08:19:09;102110.22;;;5.80;40.75
35716;BME280;21840;44.920;8.616;2023-02-12T08:21:35;102115.75;;;5.95;40.32
35716;BME280;21840;44.920;8.616;2023-02-12T08:24:01;102126.28;;;5.92;40.10
35716;BME280;21840;44.920;8.616;2023-02-12T08:26:31;102113.69;;;6.03;39.86
35716;BME280;21840;44.920;8.616;2023-02-12T08:29:18;102103.69;;;6.14;39.88
35716;BME280;21840;44.920;8.616;2023-02-12T08:31:46;102112.81;;;6.24;39.66
35716;BME280;21840;44.920;8.616;2023-02-12T08:34:22;102104.84;;;6.68;39.03
35716;BME280;21840;44.920;8.616;2023-02-12T08:36:50;102096.25;;;6.66;38.92
35716;BME280;21840;44.920;8.616;2023-02-12T08:39:17;102101.19;;;6.73;39.18
35716;BME280;21840;44.920;8.616;2023-02-12T08:41:43;102104.63;;;7.12;38.67
35716;BME280;21840;44.920;8.616;2023-02-12T08:44:10;102107.88;;;7.18;38.91
35716;BME280;21840;44.920;8.616;2023-02-12T08:46:38;102103.72;;;7.13;38.33
35716;BME280;21840;44.920;8.616;2023-02-12T08:49:07;102116.00;;;7.49;38.37
35716;BME280;21840;44.920;8.616;2023-02-12T08:51:35;102117.06;;;7.45;38.18
35716;BME280;21840;44.920;8.616;2023-02-12T08:54:04;102123.03;;;7.85;37.43
35716;BME280;21840;44.920;8.616;2023-02-12T08:56:32;102118.22;;;7.76;37.67
35716;BME280;21840;44.920;8.616;2023-02-12T08:59:00;102118.72;;;7.84;37.52
35716;BME280;21840;44.920;8.616;2023-02-12T09:01:28;102123.66;;;7.90;37.49
35716;BME280;21840;44.920;8.616;2023-02-12T09:03:54;102134.19;;;8.06;37.53
35716;BME280;21840;44.920;8.616;2023-02-12T09:06:21;102125.13;;;7.60;37.89
35716;BME280;21840;44.920;8.616;2023-02-12T09:08:47;102124.56;;;7.34;38.97
35716;BME280;21840;44.920;8.616;2023-02-12T09:11:18;102128.00;;;8.09;37.94
35716;BME280;21840;44.920;8.616;2023-02-12T09:13:45;102138.38;;;8.10;37.73
35716;BME280;21840;44.920;8.616;2023-02-12T09:16:12;102128.16;;;8.23;38.04
35716;BME280;21840;44.920;8.616;2023-02-12T09:18:38;102124.72;;;8.40;37.51
35716;BME280;21840;44.920;8.616;2023-02-12T09:21:06;102134.56;;;8.70;37.84
35716;BME280;21840;44.920;8.616;2023-02-12T09:23:32;102124.94;;;9.03;36.76
35716;BME280;21840;44.920;8.616;2023-02-12T09:25:57;102127.34;;;9.24;36.79
35716;BME280;21840;44.920;8.616;2023-02-12T09:28:23;102117.63;;;9.42;36.58
35716;BME280;21840;44.920;8.616;2023-02-12T09:30:48;102121.75;;;9.14;36.73
35716;BME280;21840;44.920;8.616;2023-02-12T09:33:14;102115.88;;;8.93;37.56
35716;BME280;21840;44.920;8.616;2023-02-12T09:35:40;102109.72;;;8.94;37.86
35716;BME280;21840;44.920;8.616;2023-02-12T09:38:06;102112.63;;;9.37;37.33
35716;BME280;21840;44.920;8.616;2023-02-12T09:43:36;102111.03;;;9.66;36.36
35716;BME280;21840;44.920;8.616;2023-02-12T09:46:18;102116.59;;;9.92;36.13
35716;BME280;21840;44.920;8.616;2023-02-12T09:51:30;102118.28;;;10.23;35.79
35716;BME280;21840;44.920;8.616;2023-02-12T09:54:05;102119.16;;;10.24;35.68
35716;BME280;21840;44.920;8.616;2023-02-12T09:56:33;102112.06;;;10.10;36.00
35716;BME280;21840;44.920;8.616;2023-02-12T09:59:06;102126.75;;;9.82;36.23
35716;BME280;21840;44.920;8.616;2023-02-12T10:01:33;102117.34;;;10.24;35.62
35716;BME280;21840;44.920;8.616;2023-02-12T10:03:59;102133.16;;;10.69;35.31
35716;BME280;21840;44.920;8.616;2023-02-12T10:06:32;102128.63;;;10.56;35.33
35716;BME280;21840;44.920;8.616;2023-02-12T10:09:18;102127.69;;;10.72;35.79
35716;BME280;21840;44.920;8.616;2023-02-12T10:11:54;102127.88;;;10.83;35.69
35716;BME280;21840;44.920;8.616;2023-02-12T10:14:38;102127.91;;;11.12;35.08
35716;BME280;21840;44.920;8.616;2023-02-12T10:25:45;102123.94;;;11.33;35.40
35716;BME280;21840;44.920;8.616;2023-02-12T10:28:18;102119.00;;;11.56;35.23
35716;BME280;21840;44.920;8.616;2023-02-12T10:31:03;102114.00;;;11.93;34.84
35716;BME280;21840;44.920;8.616;2023-02-12T10:33:35;102110.47;;;12.06;34.35
35716;BME280;21840;44.920;8.616;2023-02-12T10:38:43;102113.59;;;12.39;33.95
35716;BME280;21840;44.920;8.616;2023-02-12T10:41:12;102114.97;;;12.57;33.57
35716;BME280;21840;44.920;8.616;2023-02-12T10:43:40;102113.41;;;12.67;33.22
35716;BME280;21840;44.920;8.616;2023-02-12T10:46:05;102114.88;;;12.59;33.48
35716;BME280;21840;44.920;8.616;2023-02-12T10:48:37;102115.28;;;12.40;33.38
35716;BME280;21840;44.920;8.616;2023-02-12T10:54:36;102103.22;;;12.10;34.25
35716;BME280;21840;44.920;8.616;2023-02-12T10:57:26;102095.25;;;12.63;33.72
35716;BME280;21840;44.920;8.616;2023-02-12T10:59:56;102088.72;;;12.94;33.98
35716;BME280;21840;44.920;8.616;2023-02-12T11:02:38;102096.59;;;13.07;34.16
35716;BME280;21840;44.920;8.616;2023-02-12T11:05:23;102089.06;;;13.26;35.32
35716;BME280;21840;44.920;8.616;2023-02-12T11:07:50;102079.56;;;13.36;35.19
35716;BME280;21840;44.920;8.616;2023-02-12T11:10:28;102073.63;;;13.46;35.60
35716;BME280;21840;44.920;8.616;2023-02-12T11:12:59;102070.53;;;13.52;36.16
35716;BME280;21840;44.920;8.616;2023-02-12T11:15:34;102077.84;;;13.48;36.36
35716;BME280;21840;44.920;8.616;2023-02-12T11:18:06;102073.00;;;13.42;36.69
35716;BME280;21840;44.920;8.616;2023-02-12T11:20:50;102066.03;;;13.65;36.51
35716;BME280;21840;44.920;8.616;2023-02-12T11:26:01;102071.78;;;13.83;36.49
35716;BME280;21840;44.920;8.616;2023-02-12T11:28:28;102060.66;;;14.02;36.36
35716;BME280;21840;44.920;8.616;2023-02-12T11:33:36;102062.91;;;14.31;35.93
35716;BME280;21840;44.920;8.616;2023-02-12T11:38:56;102049.94;;;14.50;35.98
35716;BME280;21840;44.920;8.616;2023-02-12T11:41:33;102046.97;;;14.55;36.38
35716;BME280;21840;44.920;8.616;2023-02-12T11:44:08;102041.69;;;14.66;36.38
35716;BME280;21840;44.920;8.616;2023-02-12T11:46:35;102040.97;;;14.75;36.35
35716;BME280;21840;44.920;8.616;2023-02-12T11:49:01;102028.72;;;14.85;36.30
35716;BME280;21840;44.920;8.616;2023-02-12T11:51:28;102024.63;;;14.81;36.34
35716;BME280;21840;44.920;8.616;2023-02-12T11:53:58;102024.13;;;14.99;35.99
35716;BME280;21840;44.920;8.616;2023-02-12T11:56:42;102020.63;;;14.98;35.96
35716;BME280;21840;44.920;8.616;2023-02-12T11:59:36;102018.47;;;15.03;36.13
35716;BME280;21840;44.920;8.616;2023-02-12T12:02:24;102014.47;;;15.09;36.17
35716;BME280;21840;44.920;8.616;2023-02-12T12:05:02;102022.13;;;15.23;36.01
35716;BME280;21840;44.920;8.616;2023-02-12T12:07:33;102017.06;;;15.31;37.03
35716;BME280;21840;44.920;8.616;2023-02-12T12:10:06;102006.75;;;15.17;37.60
35716;BME280;21840;44.920;8.616;2023-02-12T12:12:44;102000.88;;;15.46;36.97
35716;BME280;21840;44.920;8.616;2023-02-12T12:15:21;102000.53;;;15.39;37.05
35716;BME280;21840;44.920;8.616;2023-02-12T12:18:15;101993.88;;;15.56;37.12
35716;BME280;21840;44.920;8.616;2023-02-12T12:21:55;101992.72;;;15.70;36.80
35716;BME280;21840;44.920;8.616;2023-02-12T12:24:25;101991.16;;;15.67;36.77
35716;BME280;21840;44.920;8.616;2023-02-12T12:26:59;101999.91;;;15.79;36.61
35716;BME280;21840;44.920;8.616;2023-02-12T12:29:50;101980.88;;;15.85;36.36
35716;BME280;21840;44.920;8.616;2023-02-12T12:32:19;101974.78;;;15.94;36.31
35716;BME280;21840;44.920;8.616;2023-02-12T12:34:46;101987.91;;;15.96;36.15
35716;BME280;21840;44.920;8.616;2023-02-12T12:37:39;101988.34;;;16.01;36.10
35716;BME280;21840;44.920;8.616;2023-02-12T12:56:23;101978.31;;;16.26;35.41
35716;BME280;21840;44.920;8.616;2023-02-12T13:02:00;101976.69;;;16.44;34.28
35716;BME280;21840;44.920;8.616;2023-02-12T13:04:58;101967.13;;;16.53;34.09
35716;BME280;21840;44.920;8.616;2023-02-12T13:07:34;101978.28;;;16.56;34.11
35716;BME280;21840;44.920;8.616;2023-02-12T13:10:37;101961.94;;;16.51;32.05
35716;BME280;21840;44.920;8.616;2023-02-12T13:18:35;101958.41;;;16.41;31.50
35716;BME280;21840;44.920;8.616;2023-02-12T13:21:17;101956.44;;;16.33;31.81
35716;BME280;21840;44.920;8.616;2023-02-12T13:23:54;101959.72;;;16.56;31.66
35716;BME280;21840;44.920;8.616;2023-02-12T13:26:37;101945.22;;;16.60;32.33
35716;BME280;21840;44.920;8.616;2023-02-12T13:29:17;101945.94;;;16.63;32.62
35716;BME280;21840;44.920;8.616;2023-02-12T13:31:50;101943.00;;;16.66;32.38
35716;BME280;21840;44.920;8.616;2023-02-12T13:34:17;101937.97;;;16.72;32.60
35716;BME280;21840;44.920;8.616;2023-02-12T13:36:45;101940.31;;;16.56;31.35
35716;BME280;21840;44.920;8.616;2023-02-12T13:39:24;101945.72;;;16.45;31.21
35716;BME280;21840;44.920;8.616;2023-02-12T13:44:48;101936.28;;;16.61;30.46
35716;BME280;21840;44.920;8.616;2023-02-12T13:53:01;101933.31;;;16.95;30.23
35716;BME280;21840;44.920;8.616;2023-02-12T14:01:11;101943.09;;;17.04;29.80
35716;BME280;21840;44.920;8.616;2023-02-12T14:03:37;101937.22;;;17.01;29.82
35716;BME280;21840;44.920;8.616;2023-02-12T14:08:40;101926.06;;;16.97;28.82
35716;BME280;21840;44.920;8.616;2023-02-12T14:11:21;101927.59;;;17.00;27.84
35716;BME280;21840;44.920;8.616;2023-02-12T14:14:00;101924.53;;;16.95;27.19
35716;BME280;21840;44.920;8.616;2023-02-12T14:22:00;101928.84;;;16.96;24.78
35716;BME280;21840;44.920;8.616;2023-02-12T14:27:04;101930.50;;;17.07;25.01
35716;BME280;21840;44.920;8.616;2023-02-12T14:29:30;101930.09;;;17.11;25.18
35716;BME280;21840;44.920;8.616;2023-02-12T14:31:56;101935.84;;;17.16;25.41
35716;BME280;21840;44.920;8.616;2023-02-12T14:36:48;101941.97;;;17.17;25.52
35716;BME280;21840;44.920;8.616;2023-02-12T14:39:33;101935.00;;;17.16;31.54
35716;BME280;21840;44.920;8.616;2023-02-12T14:42:40;101940.00;;;16.90;33.72
35716;BME280;21840;44.920;8.616;2023-02-12T14:44:56;101944.91;;;17.04;33.78
35716;BME280;21840;44.920;8.616;2023-02-12T14:49:58;101955.50;;;17.04;34.34
35716;BME280;21840;44.920;8.616;2023-02-12T14:52:30;101950.34;;;17.12;33.89
35716;BME280;21840;44.920;8.616;2023-02-12T14:54:59;101952.03;;;17.03;33.98
35716;BME280;21840;44.920;8.616;2023-02-12T14:59:57;101945.59;;;17.06;34.10
35716;BME280;21840;44.920;8.616;2023-02-12T15:02:27;101950.78;;;17.08;34.08
35716;BME280;21840;44.920;8.616;2023-02-12T15:04:58;101944.63;;;17.07;33.93
35716;BME280;21840;44.920;8.616;2023-02-12T15:07:30;101941.97;;;17.07;34.04
35716;BME280;21840;44.920;8.616;2023-02-12T15:10:00;101949.94;;;16.97;34.27
35716;BME280;21840;44.920;8.616;2023-02-12T15:12:41;101953.88;;;17.13;34.10
35716;BME280;21840;44.920;8.616;2023-02-12T15:15:32;101957.66;;;17.20;34.15
35716;BME280;21840;44.920;8.616;2023-02-12T15:20:49;101954.97;;;17.00;34.28
35716;BME280;21840;44.920;8.616;2023-02-12T15:23:39;101952.59;;;17.17;34.14
35716;BME280;21840;44.920;8.616;2023-02-12T15:26:09;101956.25;;;17.35;34.06
35716;BME280;21840;44.920;8.616;2023-02-12T15:28:38;101958.06;;;17.25;34.11